This is the latest recevied weather packets stored in our database for station/object SP3WRO-2. If no packets are shown the sender has not sent any weather packets the latest 10 day(s).
| Time | Temp. | Humidity | Pressure | Rain* | Wind** | Luminosity | Snow |
|---|---|---|---|---|---|---|---|
| 1787855281 | 18.33° C | 61% | 1016.3 hPa | - | - | - | - |
| 1787854380 | 18.89° C | 59% | 1016.4 hPa | - | - | - | - |
| 1787853479 | 19.44° C | 59% | 1016.5 hPa | - | - | 2 W/m² | - |
| 1787852578 | 20° C | 59% | 1016.5 hPa | - | - | 7 W/m² | - |
| 1787851677 | 21.11° C | 53% | 1016.5 hPa | - | - | 16 W/m² | - |
| 1787850776 | 21.67° C | 53% | 1016.4 hPa | - | - | 24 W/m² | - |
| 1787849875 | 22.78° C | 48% | 1016.5 hPa | - | - | 33 W/m² | - |
| 1787848975 | 23.33° C | 46% | 1016.6 hPa | - | - | 40 W/m² | - |
| 1787848074 | 23.33° C | 42% | 1016.5 hPa | - | - | 45 W/m² | - |
| 1787847173 | 23.89° C | 41% | 1016.7 hPa | - | - | 48 W/m² | - |
| 1787846272 | 23.89° C | 41% | 1016.8 hPa | - | - | 53 W/m² | - |
| 1787845371 | 24.44° C | 41% | 1016.7 hPa | - | - | 57 W/m² | - |
| 1787844471 | 24.44° C | 40% | 1016.7 hPa | - | - | 60 W/m² | - |
| 1787843569 | 25° C | 41% | 1016.7 hPa | - | - | 82 W/m² | - |
| 1787842668 | 25° C | 41% | 1016.7 hPa | - | - | 259 W/m² | - |
| 1787841767 | 25° C | 41% | 1016.6 hPa | - | - | 302 W/m² | - |
| 1787840866 | 25° C | 41% | 1016.5 hPa | - | - | 344 W/m² | - |
| 1787839965 | 25° C | 40% | 1016.6 hPa | - | - | 384 W/m² | - |
| 1787839064 | 25° C | 40% | 1016.5 hPa | - | - | 426 W/m² | - |
| 1787838164 | 25° C | 38% | 1016.7 hPa | - | - | 468 W/m² | - |
| 1787837263 | 25° C | 42% | 1016.7 hPa | - | - | 502 W/m² | - |
| 1787836362 | 25° C | 40% | 1016.8 hPa | - | - | 530 W/m² | - |
| 1787835461 | 25° C | 42% | 1016.9 hPa | - | - | 552 W/m² | - |
| 1787834560 | 25° C | 43% | 1017 hPa | - | - | 583 W/m² | - |
| 1787833659 | 24.44° C | 43% | 1017.2 hPa | - | - | 610 W/m² | - |
* Rain since midnight (hover to see other rain measurements)
** Current wind speed in m/s (hover to see current wind gust speed)